sensor_id;sensor_type;location;lat;lon;timestamp;P1;durP1;ratioP1;P2;durP2;ratioP2
49840;SDS011;35738;49.890;5.930;2023-04-06T00:01:51;14.53;;;8.13;;
49840;SDS011;35738;49.890;5.930;2023-04-06T00:04:18;13.73;;;7.97;;
49840;SDS011;35738;49.890;5.930;2023-04-06T00:06:44;12.03;;;7.13;;
49840;SDS011;35738;49.890;5.930;2023-04-06T00:09:11;13.73;;;7.57;;
49840;SDS011;35738;49.890;5.930;2023-04-06T00:11:37;8.40;;;6.33;;
49840;SDS011;35738;49.890;5.930;2023-04-06T00:14:04;9.57;;;5.87;;
49840;SDS011;35738;49.890;5.930;2023-04-06T00:16:30;11.60;;;6.40;;
49840;SDS011;35738;49.890;5.930;2023-04-06T00:18:57;9.70;;;6.07;;
49840;SDS011;35738;49.890;5.930;2023-04-06T00:21:23;14.23;;;8.17;;
49840;SDS011;35738;49.890;5.930;2023-04-06T00:23:51;10.67;;;6.50;;
49840;SDS011;35738;49.890;5.930;2023-04-06T00:26:18;12.40;;;8.17;;
49840;SDS011;35738;49.890;5.930;2023-04-06T00:28:44;11.37;;;7.47;;
49840;SDS011;35738;49.890;5.930;2023-04-06T00:31:11;10.70;;;6.43;;
49840;SDS011;35738;49.890;5.930;2023-04-06T00:33:37;13.47;;;8.03;;
49840;SDS011;35738;49.890;5.930;2023-04-06T00:36:04;13.27;;;8.27;;
49840;SDS011;35738;49.890;5.930;2023-04-06T00:38:31;9.33;;;6.47;;
49840;SDS011;35738;49.890;5.930;2023-04-06T00:40:58;14.27;;;8.07;;
49840;SDS011;35738;49.890;5.930;2023-04-06T00:43:24;12.20;;;7.27;;
49840;SDS011;35738;49.890;5.930;2023-04-06T00:45:51;14.40;;;7.50;;
49840;SDS011;35738;49.890;5.930;2023-04-06T00:48:18;10.23;;;6.20;;
49840;SDS011;35738;49.890;5.930;2023-04-06T00:50:44;10.43;;;6.50;;
49840;SDS011;35738;49.890;5.930;2023-04-06T00:53:11;11.30;;;7.10;;
49840;SDS011;35738;49.890;5.930;2023-04-06T00:55:38;11.37;;;6.80;;
49840;SDS011;35738;49.890;5.930;2023-04-06T00:58:05;11.63;;;6.43;;
49840;SDS011;35738;49.890;5.930;2023-04-06T01:00:31;14.03;;;8.50;;
49840;SDS011;35738;49.890;5.930;2023-04-06T01:02:58;16.20;;;9.00;;
49840;SDS011;35738;49.890;5.930;2023-04-06T01:05:25;17.57;;;9.20;;
49840;SDS011;35738;49.890;5.930;2023-04-06T01:07:51;11.40;;;7.50;;
49840;SDS011;35738;49.890;5.930;2023-04-06T01:10:27;16.13;;;9.47;;
49840;SDS011;35738;49.890;5.930;2023-04-06T01:12:54;17.40;;;9.17;;
49840;SDS011;35738;49.890;5.930;2023-04-06T01:15:21;16.47;;;9.57;;
49840;SDS011;35738;49.890;5.930;2023-04-06T01:17:48;14.20;;;9.03;;
49840;SDS011;35738;49.890;5.930;2023-04-06T01:20:14;12.37;;;8.03;;
49840;SDS011;35738;49.890;5.930;2023-04-06T01:22:41;14.17;;;8.50;;
49840;SDS011;35738;49.890;5.930;2023-04-06T01:25:07;14.97;;;8.63;;
49840;SDS011;35738;49.890;5.930;2023-04-06T01:27:35;16.97;;;9.97;;
49840;SDS011;35738;49.890;5.930;2023-04-06T01:30:02;16.37;;;9.70;;
49840;SDS011;35738;49.890;5.930;2023-04-06T01:32:29;16.40;;;9.50;;
49840;SDS011;35738;49.890;5.930;2023-04-06T01:34:56;16.67;;;9.80;;
49840;SDS011;35738;49.890;5.930;2023-04-06T01:37:22;15.33;;;9.50;;
49840;SDS011;35738;49.890;5.930;2023-04-06T01:39:49;16.50;;;10.00;;
49840;SDS011;35738;49.890;5.930;2023-04-06T01:42:16;16.30;;;9.90;;
49840;SDS011;35738;49.890;5.930;2023-04-06T01:44:43;16.70;;;9.67;;
49840;SDS011;35738;49.890;5.930;2023-04-06T01:47:09;19.23;;;10.17;;
49840;SDS011;35738;49.890;5.930;2023-04-06T01:49:36;16.17;;;9.30;;
49840;SDS011;35738;49.890;5.930;2023-04-06T01:52:02;18.73;;;10.20;;
49840;SDS011;35738;49.890;5.930;2023-04-06T01:54:29;17.90;;;10.37;;
49840;SDS011;35738;49.890;5.930;2023-04-06T01:56:55;17.80;;;9.90;;
49840;SDS011;35738;49.890;5.930;2023-04-06T01:59:22;13.40;;;9.00;;
49840;SDS011;35738;49.890;5.930;2023-04-06T02:01:48;13.83;;;8.40;;
49840;SDS011;35738;49.890;5.930;2023-04-06T02:04:15;14.60;;;8.57;;
49840;SDS011;35738;49.890;5.930;2023-04-06T02:06:42;15.43;;;8.87;;
49840;SDS011;35738;49.890;5.930;2023-04-06T02:09:08;19.00;;;10.40;;
49840;SDS011;35738;49.890;5.930;2023-04-06T02:11:35;14.20;;;8.30;;
49840;SDS011;35738;49.890;5.930;2023-04-06T02:14:02;12.17;;;7.50;;
49840;SDS011;35738;49.890;5.930;2023-04-06T02:16:28;14.63;;;8.93;;
49840;SDS011;35738;49.890;5.930;2023-04-06T02:18:55;13.50;;;8.17;;
49840;SDS011;35738;49.890;5.930;2023-04-06T02:21:21;15.67;;;9.43;;
49840;SDS011;35738;49.890;5.930;2023-04-06T02:23:48;15.63;;;9.10;;
49840;SDS011;35738;49.890;5.930;2023-04-06T02:26:15;13.60;;;8.37;;
49840;SDS011;35738;49.890;5.930;2023-04-06T02:28:41;14.57;;;8.20;;
49840;SDS011;35738;49.890;5.930;2023-04-06T02:31:08;14.40;;;8.03;;
49840;SDS011;35738;49.890;5.930;2023-04-06T02:33:34;15.87;;;8.57;;
49840;SDS011;35738;49.890;5.930;2023-04-06T02:36:01;16.23;;;9.23;;
49840;SDS011;35738;49.890;5.930;2023-04-06T02:38:27;13.03;;;8.00;;
49840;SDS011;35738;49.890;5.930;2023-04-06T02:40:54;12.53;;;8.03;;
49840;SDS011;35738;49.890;5.930;2023-04-06T02:43:20;14.77;;;8.83;;
49840;SDS011;35738;49.890;5.930;2023-04-06T02:45:47;15.93;;;8.97;;
49840;SDS011;35738;49.890;5.930;2023-04-06T02:48:13;12.00;;;7.70;;
49840;SDS011;35738;49.890;5.930;2023-04-06T02:50:40;14.37;;;8.27;;
49840;SDS011;35738;49.890;5.930;2023-04-06T02:53:07;18.47;;;9.10;;
49840;SDS011;35738;49.890;5.930;2023-04-06T02:55:33;14.80;;;8.87;;
49840;SDS011;35738;49.890;5.930;2023-04-06T02:58:00;15.50;;;8.90;;
49840;SDS011;35738;49.890;5.930;2023-04-06T03:00:26;14.50;;;8.63;;
49840;SDS011;35738;49.890;5.930;2023-04-06T03:02:53;14.53;;;9.07;;
49840;SDS011;35738;49.890;5.930;2023-04-06T03:05:19;16.33;;;8.80;;
49840;SDS011;35738;49.890;5.930;2023-04-06T03:07:46;19.83;;;9.50;;
49840;SDS011;35738;49.890;5.930;2023-04-06T03:10:13;14.80;;;8.53;;
49840;SDS011;35738;49.890;5.930;2023-04-06T03:12:39;18.87;;;9.43;;
49840;SDS011;35738;49.890;5.930;2023-04-06T03:15:07;15.57;;;8.87;;
49840;SDS011;35738;49.890;5.930;2023-04-06T03:17:34;16.20;;;8.70;;
49840;SDS011;35738;49.890;5.930;2023-04-06T03:20:01;14.97;;;7.83;;
49840;SDS011;35738;49.890;5.930;2023-04-06T03:22:28;16.10;;;9.10;;
49840;SDS011;35738;49.890;5.930;2023-04-06T03:24:55;14.07;;;8.10;;
49840;SDS011;35738;49.890;5.930;2023-04-06T03:27:21;12.00;;;6.80;;
49840;SDS011;35738;49.890;5.930;2023-04-06T03:29:48;15.57;;;8.23;;
49840;SDS011;35738;49.890;5.930;2023-04-06T03:32:14;17.77;;;8.73;;
49840;SDS011;35738;49.890;5.930;2023-04-06T03:34:41;15.10;;;8.03;;
49840;SDS011;35738;49.890;5.930;2023-04-06T03:37:07;15.23;;;7.33;;
49840;SDS011;35738;49.890;5.930;2023-04-06T03:39:36;14.53;;;8.00;;
49840;SDS011;35738;49.890;5.930;2023-04-06T03:42:04;17.20;;;6.77;;
49840;SDS011;35738;49.890;5.930;2023-04-06T03:44:30;12.07;;;6.63;;
49840;SDS011;35738;49.890;5.930;2023-04-06T03:46:57;11.73;;;6.40;;
49840;SDS011;35738;49.890;5.930;2023-04-06T03:49:23;14.03;;;7.13;;
49840;SDS011;35738;49.890;5.930;2023-04-06T03:51:50;11.13;;;6.63;;
49840;SDS011;35738;49.890;5.930;2023-04-06T03:54:16;18.57;;;8.17;;
49840;SDS011;35738;49.890;5.930;2023-04-06T03:56:43;13.53;;;7.30;;
49840;SDS011;35738;49.890;5.930;2023-04-06T03:59:09;14.30;;;7.37;;
49840;SDS011;35738;49.890;5.930;2023-04-06T04:01:36;15.30;;;8.00;;
49840;SDS011;35738;49.890;5.930;2023-04-06T04:04:03;13.70;;;7.80;;
49840;SDS011;35738;49.890;5.930;2023-04-06T04:06:29;13.10;;;6.83;;
49840;SDS011;35738;49.890;5.930;2023-04-06T04:08:56;15.87;;;7.27;;
49840;SDS011;35738;49.890;5.930;2023-04-06T04:11:22;12.67;;;7.23;;
49840;SDS011;35738;49.890;5.930;2023-04-06T04:13:49;13.27;;;7.30;;
49840;SDS011;35738;49.890;5.930;2023-04-06T04:16:15;15.77;;;7.93;;
49840;SDS011;35738;49.890;5.930;2023-04-06T04:18:42;13.70;;;7.67;;
49840;SDS011;35738;49.890;5.930;2023-04-06T04:21:09;12.63;;;7.13;;
49840;SDS011;35738;49.890;5.930;2023-04-06T04:23:36;14.13;;;7.53;;
49840;SDS011;35738;49.890;5.930;2023-04-06T04:26:02;16.40;;;7.57;;
49840;SDS011;35738;49.890;5.930;2023-04-06T04:28:29;13.43;;;7.43;;
49840;SDS011;35738;49.890;5.930;2023-04-06T04:30:56;15.57;;;8.10;;
49840;SDS011;35738;49.890;5.930;2023-04-06T04:33:22;12.67;;;7.60;;
49840;SDS011;35738;49.890;5.930;2023-04-06T04:35:49;14.70;;;7.40;;
49840;SDS011;35738;49.890;5.930;2023-04-06T04:38:15;14.30;;;7.60;;
49840;SDS011;35738;49.890;5.930;2023-04-06T04:40:42;15.67;;;7.87;;
49840;SDS011;35738;49.890;5.930;2023-04-06T04:43:09;14.47;;;7.47;;
49840;SDS011;35738;49.890;5.930;2023-04-06T04:45:35;16.17;;;8.87;;
49840;SDS011;35738;49.890;5.930;2023-04-06T04:48:02;15.53;;;8.43;;
49840;SDS011;35738;49.890;5.930;2023-04-06T04:50:28;19.00;;;8.40;;
49840;SDS011;35738;49.890;5.930;2023-04-06T04:52:55;14.77;;;7.70;;
49840;SDS011;35738;49.890;5.930;2023-04-06T04:55:21;20.07;;;9.23;;
49840;SDS011;35738;49.890;5.930;2023-04-06T04:57:48;17.23;;;8.40;;
49840;SDS011;35738;49.890;5.930;2023-04-06T05:00:14;19.70;;;8.87;;
49840;SDS011;35738;49.890;5.930;2023-04-06T05:02:41;15.90;;;8.80;;
49840;SDS011;35738;49.890;5.930;2023-04-06T05:05:08;18.97;;;8.90;;
49840;SDS011;35738;49.890;5.930;2023-04-06T05:07:35;15.47;;;8.63;;
49840;SDS011;35738;49.890;5.930;2023-04-06T05:10:01;18.00;;;8.77;;
49840;SDS011;35738;49.890;5.930;2023-04-06T05:12:28;15.23;;;7.90;;
49840;SDS011;35738;49.890;5.930;2023-04-06T05:14:55;16.63;;;8.87;;
49840;SDS011;35738;49.890;5.930;2023-04-06T05:17:21;19.30;;;8.00;;
49840;SDS011;35738;49.890;5.930;2023-04-06T05:19:48;18.70;;;8.20;;
49840;SDS011;35738;49.890;5.930;2023-04-06T05:22:15;15.87;;;7.70;;
49840;SDS011;35738;49.890;5.930;2023-04-06T05:24:43;17.60;;;8.80;;
49840;SDS011;35738;49.890;5.930;2023-04-06T05:27:10;16.30;;;8.57;;
49840;SDS011;35738;49.890;5.930;2023-04-06T05:29:36;16.53;;;8.53;;
49840;SDS011;35738;49.890;5.930;2023-04-06T05:32:03;16.03;;;7.83;;
49840;SDS011;35738;49.890;5.930;2023-04-06T05:34:30;16.13;;;8.23;;
49840;SDS011;35738;49.890;5.930;2023-04-06T05:36:57;17.30;;;7.70;;
49840;SDS011;35738;49.890;5.930;2023-04-06T05:39:23;15.93;;;8.50;;
49840;SDS011;35738;49.890;5.930;2023-04-06T05:41:50;16.20;;;7.90;;
49840;SDS011;35738;49.890;5.930;2023-04-06T05:44:16;17.87;;;8.30;;
49840;SDS011;35738;49.890;5.930;2023-04-06T05:46:43;16.37;;;9.20;;
49840;SDS011;35738;49.890;5.930;2023-04-06T05:49:09;15.83;;;8.30;;
49840;SDS011;35738;49.890;5.930;2023-04-06T05:51:36;18.17;;;8.37;;
49840;SDS011;35738;49.890;5.930;2023-04-06T05:54:02;13.67;;;7.67;;
49840;SDS011;35738;49.890;5.930;2023-04-06T05:56:29;14.50;;;7.77;;
49840;SDS011;35738;49.890;5.930;2023-04-06T05:58:57;18.53;;;9.13;;
49840;SDS011;35738;49.890;5.930;2023-04-06T06:01:23;14.77;;;8.13;;
49840;SDS011;35738;49.890;5.930;2023-04-06T06:03:50;14.70;;;8.33;;
49840;SDS011;35738;49.890;5.930;2023-04-06T06:06:16;16.60;;;8.27;;
49840;SDS011;35738;49.890;5.930;2023-04-06T06:08:43;18.73;;;9.87;;
49840;SDS011;35738;49.890;5.930;2023-04-06T06:11:09;17.40;;;8.90;;
49840;SDS011;35738;49.890;5.930;2023-04-06T06:13:36;16.70;;;9.40;;
49840;SDS011;35738;49.890;5.930;2023-04-06T06:16:02;16.47;;;9.10;;
49840;SDS011;35738;49.890;5.930;2023-04-06T06:18:31;17.87;;;9.50;;
49840;SDS011;35738;49.890;5.930;2023-04-06T06:20:58;16.87;;;8.67;;
49840;SDS011;35738;49.890;5.930;2023-04-06T06:23:24;17.70;;;9.17;;
49840;SDS011;35738;49.890;5.930;2023-04-06T06:25:51;16.40;;;9.10;;
49840;SDS011;35738;49.890;5.930;2023-04-06T06:28:17;16.83;;;9.17;;
49840;SDS011;35738;49.890;5.930;2023-04-06T06:30:44;16.93;;;9.17;;
49840;SDS011;35738;49.890;5.930;2023-04-06T06:33:11;16.87;;;8.33;;
49840;SDS011;35738;49.890;5.930;2023-04-06T06:35:37;14.00;;;8.30;;
49840;SDS011;35738;49.890;5.930;2023-04-06T06:38:04;18.83;;;8.90;;
49840;SDS011;35738;49.890;5.930;2023-04-06T06:40:30;20.13;;;9.70;;
49840;SDS011;35738;49.890;5.930;2023-04-06T06:42:57;16.77;;;8.70;;
49840;SDS011;35738;49.890;5.930;2023-04-06T06:45:23;18.83;;;9.70;;
49840;SDS011;35738;49.890;5.930;2023-04-06T06:47:51;17.20;;;9.05;;
49840;SDS011;35738;49.890;5.930;2023-04-06T06:50:20;18.77;;;8.85;;
49840;SDS011;35738;49.890;5.930;2023-04-06T06:52:47;16.03;;;8.40;;
49840;SDS011;35738;49.890;5.930;2023-04-06T06:55:13;16.00;;;9.00;;
49840;SDS011;35738;49.890;5.930;2023-04-06T06:57:41;17.25;;;9.75;;
49840;SDS011;35738;49.890;5.930;2023-04-06T07:00:08;20.08;;;9.52;;
49840;SDS011;35738;49.890;5.930;2023-04-06T07:02:38;17.57;;;9.57;;
49840;SDS011;35738;49.890;5.930;2023-04-06T07:05:05;19.27;;;9.53;;
49840;SDS011;35738;49.890;5.930;2023-04-06T07:07:53;16.87;;;9.47;;
49840;SDS011;35738;49.890;5.930;2023-04-06T07:10:20;23.83;;;10.13;;
49840;SDS011;35738;49.890;5.930;2023-04-06T07:12:47;19.83;;;9.90;;
49840;SDS011;35738;49.890;5.930;2023-04-06T07:15:14;19.53;;;9.97;;
49840;SDS011;35738;49.890;5.930;2023-04-06T07:17:40;17.10;;;9.43;;
49840;SDS011;35738;49.890;5.930;2023-04-06T07:20:13;17.33;;;9.53;;
49840;SDS011;35738;49.890;5.930;2023-04-06T07:22:41;16.27;;;9.70;;
49840;SDS011;35738;49.890;5.930;2023-04-06T07:25:09;20.83;;;9.88;;
49840;SDS011;35738;49.890;5.930;2023-04-06T07:27:35;15.60;;;8.93;;
49840;SDS011;35738;49.890;5.930;2023-04-06T07:30:02;14.68;;;8.48;;
49840;SDS011;35738;49.890;5.930;2023-04-06T07:32:29;15.98;;;9.02;;
49840;SDS011;35738;49.890;5.930;2023-04-06T07:34:57;17.65;;;8.95;;
49840;SDS011;35738;49.890;5.930;2023-04-06T07:37:24;17.40;;;8.18;;
49840;SDS011;35738;49.890;5.930;2023-04-06T07:39:51;17.20;;;9.10;;
49840;SDS011;35738;49.890;5.930;2023-04-06T07:42:17;16.60;;;8.52;;
49840;SDS011;35738;49.890;5.930;2023-04-06T07:44:44;13.63;;;7.88;;
49840;SDS011;35738;49.890;5.930;2023-04-06T07:47:11;17.20;;;9.18;;
49840;SDS011;35738;49.890;5.930;2023-04-06T07:49:37;16.05;;;8.48;;
49840;SDS011;35738;49.890;5.930;2023-04-06T07:52:03;18.55;;;8.50;;
49840;SDS011;35738;49.890;5.930;2023-04-06T07:54:30;15.60;;;8.57;;
49840;SDS011;35738;49.890;5.930;2023-04-06T07:56:56;16.45;;;8.63;;
49840;SDS011;35738;49.890;5.930;2023-04-06T07:59:23;19.88;;;9.43;;
49840;SDS011;35738;49.890;5.930;2023-04-06T08:01:49;19.10;;;8.63;;
49840;SDS011;35738;49.890;5.930;2023-04-06T08:04:16;19.25;;;9.07;;
49840;SDS011;35738;49.890;5.930;2023-04-06T08:06:43;16.67;;;8.77;;
49840;SDS011;35738;49.890;5.930;2023-04-06T08:09:09;15.60;;;8.38;;
49840;SDS011;35738;49.890;5.930;2023-04-06T08:11:36;14.95;;;8.20;;
49840;SDS011;35738;49.890;5.930;2023-04-06T08:14:02;17.60;;;8.73;;
49840;SDS011;35738;49.890;5.930;2023-04-06T08:16:29;14.35;;;8.45;;
49840;SDS011;35738;49.890;5.930;2023-04-06T08:18:55;15.48;;;8.20;;
49840;SDS011;35738;49.890;5.930;2023-04-06T08:21:22;16.30;;;8.20;;
49840;SDS011;35738;49.890;5.930;2023-04-06T08:23:49;15.45;;;7.78;;
49840;SDS011;35738;49.890;5.930;2023-04-06T08:26:16;16.60;;;8.73;;
49840;SDS011;35738;49.890;5.930;2023-04-06T08:28:43;15.15;;;7.45;;
49840;SDS011;35738;49.890;5.930;2023-04-06T08:31:12;19.30;;;8.75;;
49840;SDS011;35738;49.890;5.930;2023-04-06T08:33:38;15.70;;;7.95;;
49840;SDS011;35738;49.890;5.930;2023-04-06T08:36:12;13.88;;;8.20;;
49840;SDS011;35738;49.890;5.930;2023-04-06T08:38:40;13.35;;;7.78;;
49840;SDS011;35738;49.890;5.930;2023-04-06T08:41:10;17.17;;;8.27;;
49840;SDS011;35738;49.890;5.930;2023-04-06T08:46:25;14.95;;;8.38;;
49840;SDS011;35738;49.890;5.930;2023-04-06T08:48:58;14.18;;;7.80;;
49840;SDS011;35738;49.890;5.930;2023-04-06T08:51:27;15.10;;;8.63;;
49840;SDS011;35738;49.890;5.930;2023-04-06T08:53:55;15.85;;;8.30;;
49840;SDS011;35738;49.890;5.930;2023-04-06T08:56:24;14.30;;;8.43;;
49840;SDS011;35738;49.890;5.930;2023-04-06T08:58:54;14.90;;;7.85;;
49840;SDS011;35738;49.890;5.930;2023-04-06T09:01:25;16.52;;;7.97;;
49840;SDS011;35738;49.890;5.930;2023-04-06T09:03:57;18.75;;;8.85;;
49840;SDS011;35738;49.890;5.930;2023-04-06T09:06:25;18.95;;;8.43;;
49840;SDS011;35738;49.890;5.930;2023-04-06T09:08:57;16.42;;;8.48;;
49840;SDS011;35738;49.890;5.930;2023-04-06T09:11:24;16.67;;;8.85;;
49840;SDS011;35738;49.890;5.930;2023-04-06T09:13:52;14.93;;;8.70;;
49840;SDS011;35738;49.890;5.930;2023-04-06T09:16:20;16.00;;;8.70;;
49840;SDS011;35738;49.890;5.930;2023-04-06T09:18:47;21.45;;;8.60;;
49840;SDS011;35738;49.890;5.930;2023-04-06T09:21:17;12.43;;;8.25;;
49840;SDS011;35738;49.890;5.930;2023-04-06T09:23:47;18.10;;;8.80;;
49840;SDS011;35738;49.890;5.930;2023-04-06T09:26:15;15.18;;;7.97;;
49840;SDS011;35738;49.890;5.930;2023-04-06T09:28:47;15.13;;;8.27;;
49840;SDS011;35738;49.890;5.930;2023-04-06T09:31:16;14.68;;;8.20;;
49840;SDS011;35738;49.890;5.930;2023-04-06T09:33:47;19.02;;;8.38;;
49840;SDS011;35738;49.890;5.930;2023-04-06T09:36:14;16.45;;;8.48;;
49840;SDS011;35738;49.890;5.930;2023-04-06T09:41:24;15.45;;;8.50;;
49840;SDS011;35738;49.890;5.930;2023-04-06T09:44:04;15.35;;;8.60;;
49840;SDS011;35738;49.890;5.930;2023-04-06T09:46:34;15.25;;;8.35;;
49840;SDS011;35738;49.890;5.930;2023-04-06T09:49:20;16.02;;;8.38;;
49840;SDS011;35738;49.890;5.930;2023-04-06T09:51:52;15.18;;;8.23;;
49840;SDS011;35738;49.890;5.930;2023-04-06T09:54:22;16.15;;;8.50;;
49840;SDS011;35738;49.890;5.930;2023-04-06T10:03:02;14.27;;;8.35;;
49840;SDS011;35738;49.890;5.930;2023-04-06T10:05:38;17.50;;;8.68;;
49840;SDS011;35738;49.890;5.930;2023-04-06T10:08:10;13.93;;;8.43;;
49840;SDS011;35738;49.890;5.930;2023-04-06T10:10:37;12.38;;;8.05;;
49840;SDS011;35738;49.890;5.930;2023-04-06T10:13:04;13.73;;;8.63;;
49840;SDS011;35738;49.890;5.930;2023-04-06T10:15:31;13.07;;;8.15;;
49840;SDS011;35738;49.890;5.930;2023-04-06T10:17:58;15.07;;;8.80;;
49840;SDS011;35738;49.890;5.930;2023-04-06T10:23:31;13.85;;;8.30;;
49840;SDS011;35738;49.890;5.930;2023-04-06T10:26:01;13.73;;;7.90;;
49840;SDS011;35738;49.890;5.930;2023-04-06T10:28:33;12.02;;;8.27;;
49840;SDS011;35738;49.890;5.930;2023-04-06T10:31:04;15.85;;;8.05;;
49840;SDS011;35738;49.890;5.930;2023-04-06T10:33:32;14.32;;;8.48;;
49840;SDS011;35738;49.890;5.930;2023-04-06T10:36:09;14.13;;;8.10;;
49840;SDS011;35738;49.890;5.930;2023-04-06T10:38:53;15.15;;;8.93;;
49840;SDS011;35738;49.890;5.930;2023-04-06T10:41:21;15.50;;;8.82;;
49840;SDS011;35738;49.890;5.930;2023-04-06T10:43:54;14.13;;;8.20;;
49840;SDS011;35738;49.890;5.930;2023-04-06T10:46:25;14.68;;;8.38;;
49840;SDS011;35738;49.890;5.930;2023-04-06T10:48:53;12.95;;;8.35;;
49840;SDS011;35738;49.890;5.930;2023-04-06T10:51:23;12.98;;;8.20;;
49840;SDS011;35738;49.890;5.930;2023-04-06T10:53:53;13.95;;;8.68;;
49840;SDS011;35738;49.890;5.930;2023-04-06T10:56:22;12.43;;;7.60;;
49840;SDS011;35738;49.890;5.930;2023-04-06T10:58:52;11.65;;;7.85;;
49840;SDS011;35738;49.890;5.930;2023-04-06T11:01:20;14.63;;;8.02;;
49840;SDS011;35738;49.890;5.930;2023-04-06T11:03:55;9.63;;;6.20;;
49840;SDS011;35738;49.890;5.930;2023-04-06T11:06:25;8.70;;;5.53;;
49840;SDS011;35738;49.890;5.930;2023-04-06T11:08:55;9.55;;;5.65;;
49840;SDS011;35738;49.890;5.930;2023-04-06T11:11:22;8.57;;;5.45;;
49840;SDS011;35738;49.890;5.930;2023-04-06T11:16:30;8.60;;;5.88;;
49840;SDS011;35738;49.890;5.930;2023-04-06T11:18:58;9.80;;;5.47;;
49840;SDS011;35738;49.890;5.930;2023-04-06T11:26:40;9.13;;;6.57;;
49840;SDS011;35738;49.890;5.930;2023-04-06T11:29:16;10.27;;;5.75;;
49840;SDS011;35738;49.890;5.930;2023-04-06T11:31:45;8.20;;;6.00;;
49840;SDS011;35738;49.890;5.930;2023-04-06T11:34:18;9.48;;;6.50;;
49840;SDS011;35738;49.890;5.930;2023-04-06T11:36:46;9.57;;;6.65;;
49840;SDS011;35738;49.890;5.930;2023-04-06T11:39:17;8.55;;;6.25;;
49840;SDS011;35738;49.890;5.930;2023-04-06T11:41:48;10.25;;;7.50;;
49840;SDS011;35738;49.890;5.930;2023-04-06T11:44:26;9.77;;;6.80;;
49840;SDS011;35738;49.890;5.930;2023-04-06T11:46:59;10.80;;;6.75;;
49840;SDS011;35738;49.890;5.930;2023-04-06T11:49:30;10.13;;;6.88;;
49840;SDS011;35738;49.890;5.930;2023-04-06T11:51:58;11.00;;;7.40;;
49840;SDS011;35738;49.890;5.930;2023-04-06T11:54:44;11.27;;;6.85;;
49840;SDS011;35738;49.890;5.930;2023-04-06T11:57:11;11.70;;;7.15;;
49840;SDS011;35738;49.890;5.930;2023-04-06T11:59:38;10.43;;;6.93;;
49840;SDS011;35738;49.890;5.930;2023-04-06T12:02:04;8.82;;;6.40;;
49840;SDS011;35738;49.890;5.930;2023-04-06T12:04:32;9.85;;;6.35;;
49840;SDS011;35738;49.890;5.930;2023-04-06T12:06:58;10.40;;;6.88;;
49840;SDS011;35738;49.890;5.930;2023-04-06T12:09:25;9.80;;;6.75;;
49840;SDS011;35738;49.890;5.930;2023-04-06T12:11:51;9.00;;;6.75;;
49840;SDS011;35738;49.890;5.930;2023-04-06T12:14:18;10.45;;;6.97;;
49840;SDS011;35738;49.890;5.930;2023-04-06T12:16:45;9.48;;;6.53;;
49840;SDS011;35738;49.890;5.930;2023-04-06T12:19:12;9.13;;;6.10;;
49840;SDS011;35738;49.890;5.930;2023-04-06T12:21:38;8.70;;;6.43;;
49840;SDS011;35738;49.890;5.930;2023-04-06T12:24:04;9.13;;;6.22;;
49840;SDS011;35738;49.890;5.930;2023-04-06T12:26:32;9.63;;;6.63;;
49840;SDS011;35738;49.890;5.930;2023-04-06T12:28:59;9.95;;;6.63;;
49840;SDS011;35738;49.890;5.930;2023-04-06T12:31:36;9.52;;;6.35;;
49840;SDS011;35738;49.890;5.930;2023-04-06T12:34:05;8.98;;;6.68;;
49840;SDS011;35738;49.890;5.930;2023-04-06T12:36:32;9.15;;;6.57;;
49840;SDS011;35738;49.890;5.930;2023-04-06T12:38:59;9.85;;;6.70;;
49840;SDS011;35738;49.890;5.930;2023-04-06T12:41:27;10.77;;;6.80;;
49840;SDS011;35738;49.890;5.930;2023-04-06T12:43:54;9.40;;;6.97;;
49840;SDS011;35738;49.890;5.930;2023-04-06T12:46:21;9.00;;;6.43;;
49840;SDS011;35738;49.890;5.930;2023-04-06T12:48:49;9.07;;;6.45;;
49840;SDS011;35738;49.890;5.930;2023-04-06T12:51:19;8.10;;;6.03;;
49840;SDS011;35738;49.890;5.930;2023-04-06T12:53:46;8.95;;;6.88;;
49840;SDS011;35738;49.890;5.930;2023-04-06T12:56:13;10.30;;;6.88;;
49840;SDS011;35738;49.890;5.930;2023-04-06T12:58:41;8.50;;;6.50;;
49840;SDS011;35738;49.890;5.930;2023-04-06T13:01:08;8.00;;;6.03;;
49840;SDS011;35738;49.890;5.930;2023-04-06T13:03:35;6.50;;;5.85;;
49840;SDS011;35738;49.890;5.930;2023-04-06T13:06:02;7.07;;;5.38;;
49840;SDS011;35738;49.890;5.930;2023-04-06T13:08:28;6.13;;;5.50;;
49840;SDS011;35738;49.890;5.930;2023-04-06T13:10:55;6.97;;;5.57;;
49840;SDS011;35738;49.890;5.930;2023-04-06T13:13:23;7.70;;;5.32;;
49840;SDS011;35738;49.890;5.930;2023-04-06T13:15:53;7.63;;;5.05;;
49840;SDS011;35738;49.890;5.930;2023-04-06T13:18:21;5.68;;;4.55;;
49840;SDS011;35738;49.890;5.930;2023-04-06T13:20:49;7.07;;;4.90;;
49840;SDS011;35738;49.890;5.930;2023-04-06T13:23:15;5.75;;;4.78;;
49840;SDS011;35738;49.890;5.930;2023-04-06T13:25:42;5.50;;;4.43;;
49840;SDS011;35738;49.890;5.930;2023-04-06T13:28:09;8.23;;;4.63;;
49840;SDS011;35738;49.890;5.930;2023-04-06T13:30:36;7.43;;;5.00;;
49840;SDS011;35738;49.890;5.930;2023-04-06T13:33:02;8.20;;;5.38;;
49840;SDS011;35738;49.890;5.930;2023-04-06T13:35:30;7.03;;;5.20;;
49840;SDS011;35738;49.890;5.930;2023-04-06T13:37:57;9.95;;;5.68;;
49840;SDS011;35738;49.890;5.930;2023-04-06T13:40:24;7.55;;;5.07;;
49840;SDS011;35738;49.890;5.930;2023-04-06T13:42:50;7.30;;;5.20;;
49840;SDS011;35738;49.890;5.930;2023-04-06T13:45:17;7.07;;;4.70;;
49840;SDS011;35738;49.890;5.930;2023-04-06T13:47:44;6.20;;;4.97;;
49840;SDS011;35738;49.890;5.930;2023-04-06T13:50:10;6.55;;;5.07;;
49840;SDS011;35738;49.890;5.930;2023-04-06T13:52:37;7.93;;;5.65;;
49840;SDS011;35738;49.890;5.930;2023-04-06T13:55:03;7.90;;;4.90;;
49840;SDS011;35738;49.890;5.930;2023-04-06T13:57:30;7.97;;;5.00;;
49840;SDS011;35738;49.890;5.930;2023-04-06T13:59:57;9.25;;;5.82;;
49840;SDS011;35738;49.890;5.930;2023-04-06T14:02:23;7.55;;;4.93;;
49840;SDS011;35738;49.890;5.930;2023-04-06T14:04:53;8.88;;;5.80;;
49840;SDS011;35738;49.890;5.930;2023-04-06T14:07:20;8.23;;;5.53;;
49840;SDS011;35738;49.890;5.930;2023-04-06T14:09:49;8.48;;;5.90;;
49840;SDS011;35738;49.890;5.930;2023-04-06T14:12:16;8.20;;;6.07;;
49840;SDS011;35738;49.890;5.930;2023-04-06T14:14:42;8.77;;;5.95;;
49840;SDS011;35738;49.890;5.930;2023-04-06T14:17:09;8.30;;;5.55;;
49840;SDS011;35738;49.890;5.930;2023-04-06T14:19:35;8.73;;;5.82;;
49840;SDS011;35738;49.890;5.930;2023-04-06T14:22:02;9.00;;;6.00;;
49840;SDS011;35738;49.890;5.930;2023-04-06T14:24:28;9.25;;;6.20;;
49840;SDS011;35738;49.890;5.930;2023-04-06T14:26:55;8.70;;;6.25;;
49840;SDS011;35738;49.890;5.930;2023-04-06T14:29:22;8.40;;;6.72;;
49840;SDS011;35738;49.890;5.930;2023-04-06T14:31:50;10.52;;;6.55;;
49840;SDS011;35738;49.890;5.930;2023-04-06T14:34:17;11.05;;;6.93;;
49840;SDS011;35738;49.890;5.930;2023-04-06T14:36:43;12.00;;;7.28;;
49840;SDS011;35738;49.890;5.930;2023-04-06T14:39:10;8.07;;;6.35;;
49840;SDS011;35738;49.890;5.930;2023-04-06T14:41:36;11.43;;;6.90;;
49840;SDS011;35738;49.890;5.930;2023-04-06T14:44:03;12.05;;;7.30;;
49840;SDS011;35738;49.890;5.930;2023-04-06T14:46:29;10.50;;;6.75;;
49840;SDS011;35738;49.890;5.930;2023-04-06T14:48:57;10.98;;;7.07;;
49840;SDS011;35738;49.890;5.930;2023-04-06T14:51:24;12.85;;;7.85;;
49840;SDS011;35738;49.890;5.930;2023-04-06T14:53:53;9.63;;;7.03;;
49840;SDS011;35738;49.890;5.930;2023-04-06T14:56:23;11.43;;;7.80;;
49840;SDS011;35738;49.890;5.930;2023-04-06T14:58:50;12.32;;;7.45;;
49840;SDS011;35738;49.890;5.930;2023-04-06T15:01:20;11.68;;;7.55;;
49840;SDS011;35738;49.890;5.930;2023-04-06T15:03:47;12.90;;;7.78;;